Terminal Aerodrome Forecast
Issued by NWS Memphis, TN

Current Version | Previous Version | Text Only | Print | Product List | Glossary On
Versions: 1 2 3 4 5 6 7 8 9 10 11 12 13 14 15 16 17
000
FTUS44 KMEG 011720
TAFJBR
TAF
KJBR 011720Z 0118/0218 VRB02KT P6SM VCSH SCT012 OVC035
     FM020000 02008KT P6SM VCSH BKN005 OVC015
      TEMPO 0204/0208 3SM BR
     FM021100 04012G18KT P6SM SCT012 SCT015 OVC025=

USA.gov is the U.S. government's official web portal to all federal, state and local government web resources and services.